createdAt,value
2023-12-21T00:02:12.878Z,36.70
2023-12-21T00:04:40.562Z,36.70
2023-12-21T00:07:08.492Z,36.80
2023-12-21T00:09:35.927Z,36.80
2023-12-21T00:12:04.238Z,36.90
2023-12-21T00:14:32.047Z,36.80
2023-12-21T00:17:02.573Z,36.80
2023-12-21T00:19:30.020Z,36.90
2023-12-21T00:21:57.641Z,36.90
2023-12-21T00:24:25.106Z,36.90
2023-12-21T00:26:53.796Z,36.80
2023-12-21T00:29:21.079Z,36.90
2023-12-21T00:31:49.052Z,36.80
2023-12-21T00:34:17.528Z,36.80
2023-12-21T00:36:46.697Z,36.80
2023-12-21T00:39:13.869Z,36.90
2023-12-21T00:41:41.552Z,37.00
2023-12-21T00:44:08.879Z,36.90
2023-12-21T00:46:36.221Z,36.90
2023-12-21T00:49:04.339Z,36.90
2023-12-21T00:51:31.578Z,36.90
2023-12-21T00:54:01.768Z,37.00
2023-12-21T00:56:28.900Z,37.00
2023-12-21T00:59:00.578Z,36.90
2023-12-21T01:01:28.525Z,36.90
2023-12-21T01:03:59.096Z,37.00
2023-12-21T01:06:26.282Z,37.00
2023-12-21T01:08:53.842Z,37.00
2023-12-21T01:11:21.786Z,37.00
2023-12-21T01:13:49.346Z,37.00
2023-12-21T01:16:17.554Z,37.00
2023-12-21T01:18:45.449Z,37.00
2023-12-21T01:21:12.840Z,37.00
2023-12-21T01:23:40.013Z,37.00
2023-12-21T01:26:07.284Z,37.00
2023-12-21T01:28:34.677Z,37.00
2023-12-21T01:31:02.367Z,37.00
2023-12-21T01:33:29.807Z,37.00
2023-12-21T01:35:57.339Z,37.10
2023-12-21T01:38:25.755Z,37.10
2023-12-21T01:40:53.183Z,37.10
2023-12-21T01:43:22.574Z,37.10
2023-12-21T01:45:50.144Z,37.10
2023-12-21T01:48:18.176Z,37.10
2023-12-21T01:50:46.450Z,37.10
2023-12-21T01:53:16.514Z,37.10
2023-12-21T01:55:46.160Z,37.10
2023-12-21T01:58:13.978Z,36.90
2023-12-21T02:00:43.417Z,37.10
2023-12-21T02:03:10.959Z,37.10
2023-12-21T02:05:38.380Z,37.10
2023-12-21T02:08:06.043Z,37.10
2023-12-21T02:10:34.162Z,37.20
2023-12-21T02:13:01.310Z,37.00
2023-12-21T02:15:28.721Z,37.10
2023-12-21T02:17:58.055Z,37.10
2023-12-21T02:20:26.409Z,37.20
2023-12-21T02:22:55.398Z,37.10
2023-12-21T02:25:24.125Z,37.20
2023-12-21T02:27:52.175Z,37.10
2023-12-21T02:30:19.500Z,37.20
2023-12-21T02:32:46.932Z,37.10
2023-12-21T02:35:14.674Z,37.20
2023-12-21T02:37:41.985Z,37.20
2023-12-21T02:40:09.870Z,37.20
2023-12-21T02:42:37.253Z,37.30
2023-12-21T02:45:04.807Z,37.20
2023-12-21T02:47:32.004Z,37.20
2023-12-21T02:49:59.339Z,37.20
2023-12-21T02:52:26.665Z,37.20
2023-12-21T02:54:53.921Z,37.20
2023-12-21T02:57:21.846Z,37.80
2023-12-21T02:59:50.363Z,37.30
2023-12-21T03:02:17.755Z,37.30
2023-12-21T03:04:44.939Z,37.30
2023-12-21T03:07:12.129Z,37.30
2023-12-21T03:09:40.129Z,37.30
2023-12-21T03:12:08.287Z,37.30
2023-12-21T03:14:35.415Z,37.30
2023-12-21T03:17:02.596Z,37.30
2023-12-21T03:19:29.937Z,37.30
2023-12-21T03:21:58.054Z,37.30
2023-12-21T03:24:25.241Z,37.30
2023-12-21T03:26:54.930Z,37.30
2023-12-21T03:29:22.051Z,37.30
2023-12-21T03:31:58.615Z,37.30
2023-12-21T03:34:35.373Z,37.40
2023-12-21T03:37:02.547Z,37.40
2023-12-21T03:39:32.375Z,37.30
2023-12-21T03:42:00.791Z,37.40
2023-12-21T03:44:27.993Z,37.30
2023-12-21T03:46:55.376Z,37.30
2023-12-21T03:49:22.782Z,37.30
2023-12-21T03:51:49.982Z,37.30
2023-12-21T03:54:17.083Z,37.20
2023-12-21T03:56:44.396Z,37.30
2023-12-21T03:59:12.773Z,37.40
2023-12-21T04:01:40.149Z,37.40
2023-12-21T04:04:07.472Z,37.40
2023-12-21T04:06:34.901Z,37.40
2023-12-21T04:09:02.018Z,37.40
2023-12-21T04:11:29.787Z,37.40
2023-12-21T04:13:56.941Z,37.40
2023-12-21T04:16:24.145Z,37.40
2023-12-21T04:18:51.482Z,37.40
2023-12-21T04:21:18.753Z,37.40
2023-12-21T04:23:46.689Z,37.40
2023-12-21T04:26:26.626Z,37.40
2023-12-21T04:28:54.424Z,37.50
2023-12-21T04:31:23.178Z,37.40
2023-12-21T04:33:53.319Z,37.50
2023-12-21T04:36:25.372Z,37.40
2023-12-21T04:38:54.213Z,37.50
2023-12-21T04:41:21.761Z,37.50
2023-12-21T04:43:48.878Z,37.50
2023-12-21T04:46:16.059Z,37.50
2023-12-21T04:48:43.774Z,37.40
2023-12-21T04:51:18.501Z,37.50
2023-12-21T04:53:46.136Z,37.60
2023-12-21T04:56:13.488Z,37.50
2023-12-21T04:58:42.154Z,37.50
2023-12-21T05:01:12.548Z,37.50
2023-12-21T05:03:40.039Z,37.40
2023-12-21T05:06:07.475Z,37.50
2023-12-21T05:08:35.977Z,37.50
2023-12-21T05:11:03.790Z,37.50
2023-12-21T05:13:31.068Z,37.50
2023-12-21T05:15:58.356Z,37.50
2023-12-21T05:18:29.146Z,37.60
2023-12-21T05:20:56.292Z,37.60
2023-12-21T05:23:23.585Z,37.50
2023-12-21T05:25:51.364Z,37.50
2023-12-21T05:28:18.552Z,37.70
2023-12-21T05:30:45.919Z,37.60
2023-12-21T05:33:13.179Z,37.60
2023-12-21T05:35:40.372Z,37.60
2023-12-21T05:38:07.469Z,37.60
2023-12-21T05:40:34.597Z,37.60
2023-12-21T05:43:01.773Z,38.10
2023-12-21T05:45:28.906Z,37.50
2023-12-21T05:48:00.113Z,37.50
2023-12-21T05:50:27.738Z,37.70
2023-12-21T05:52:55.190Z,37.60
2023-12-21T05:55:22.566Z,37.60
2023-12-21T05:57:49.715Z,37.70
2023-12-21T06:00:17.410Z,37.60
2023-12-21T06:02:44.804Z,37.60
2023-12-21T06:05:12.589Z,37.60
2023-12-21T06:07:39.722Z,37.70
2023-12-21T06:10:10.890Z,37.70
2023-12-21T06:12:38.219Z,37.90
2023-12-21T06:15:06.070Z,38.20
2023-12-21T06:17:33.318Z,38.30
2023-12-21T06:20:00.722Z,38.40
2023-12-21T06:22:28.538Z,38.70
2023-12-21T06:24:55.760Z,38.70
2023-12-21T06:27:23.281Z,38.80
2023-12-21T06:29:51.650Z,38.80
2023-12-21T06:32:18.835Z,38.80
2023-12-21T06:34:46.472Z,38.80
2023-12-21T06:37:13.676Z,38.70
2023-12-21T06:39:40.743Z,38.70
2023-12-21T06:42:08.203Z,38.70
2023-12-21T06:44:35.400Z,38.50
2023-12-21T06:47:02.438Z,38.50
2023-12-21T06:49:29.952Z,38.40
2023-12-21T06:51:57.176Z,38.30
2023-12-21T06:54:24.296Z,38.30
2023-12-21T06:56:51.418Z,38.20
2023-12-21T06:59:18.663Z,38.10
2023-12-21T07:01:45.856Z,38.10
2023-12-21T07:04:13.213Z,38.00
2023-12-21T07:06:40.321Z,37.80
2023-12-21T07:09:07.771Z,37.80
2023-12-21T07:11:34.886Z,37.70
2023-12-21T07:18:03.721Z,37.10
2023-12-21T07:20:31.673Z,37.00
2023-12-21T07:22:59.129Z,37.40
2023-12-21T07:25:26.334Z,37.30
2023-12-21T07:27:55.110Z,37.20
2023-12-21T07:30:23.362Z,37.10
2023-12-21T07:32:50.567Z,37.00
2023-12-21T07:35:17.950Z,36.90
2023-12-21T07:37:45.499Z,36.90
2023-12-21T07:40:13.083Z,36.80
2023-12-21T07:42:40.128Z,36.70
2023-12-21T07:45:08.022Z,36.30
2023-12-21T07:47:36.684Z,36.60
2023-12-21T07:50:03.955Z,36.60
2023-12-21T07:52:31.314Z,36.60
2023-12-21T07:54:58.408Z,36.60
2023-12-21T07:57:25.552Z,36.60
2023-12-21T07:59:55.522Z,36.60
2023-12-21T08:02:22.645Z,36.60
2023-12-21T08:04:49.896Z,36.70
2023-12-21T08:07:17.015Z,36.70
2023-12-21T08:09:44.150Z,36.60
2023-12-21T08:12:11.381Z,36.70
2023-12-21T08:14:41.547Z,36.10
2023-12-21T08:17:10.997Z,36.70
2023-12-21T08:19:39.005Z,36.70
2023-12-21T08:22:07.902Z,36.80
2023-12-21T08:24:35.069Z,36.70
2023-12-21T08:27:02.322Z,36.80
2023-12-21T08:29:29.634Z,36.80
2023-12-21T08:31:56.782Z,36.80
2023-12-21T08:34:24.110Z,36.80
2023-12-21T08:36:51.606Z,36.80
2023-12-21T08:39:18.763Z,36.80
2023-12-21T08:41:45.883Z,36.80
2023-12-21T08:44:13.068Z,36.90
2023-12-21T08:46:44.825Z,36.80
2023-12-21T08:49:16.828Z,36.70
2023-12-21T08:51:43.934Z,36.80
2023-12-21T08:54:11.036Z,36.80
2023-12-21T08:56:47.022Z,36.80
2023-12-21T08:59:14.106Z,36.70
2023-12-21T09:01:41.384Z,36.80
2023-12-21T09:04:08.762Z,36.80
2023-12-21T09:06:36.060Z,36.60
2023-12-21T09:09:05.358Z,36.70
2023-12-21T09:11:32.898Z,36.60
2023-12-21T09:14:00.003Z,36.60
2023-12-21T09:16:27.113Z,36.50
2023-12-21T09:18:56.374Z,36.60
2023-12-21T09:21:23.775Z,36.50
2023-12-21T09:23:51.232Z,36.60
2023-12-21T09:26:18.823Z,36.60
2023-12-21T09:28:46.673Z,36.50
2023-12-21T09:31:14.221Z,36.50
2023-12-21T09:33:41.963Z,36.50
2023-12-21T09:36:10.792Z,36.50
2023-12-21T09:38:38.409Z,36.50
2023-12-21T09:41:08.565Z,36.30
2023-12-21T09:43:42.446Z,36.30
2023-12-21T09:46:12.019Z,36.30
2023-12-21T09:48:41.754Z,36.40
2023-12-21T09:51:11.320Z,36.30
2023-12-21T09:53:40.812Z,36.30
2023-12-21T09:56:09.324Z,36.30
2023-12-21T09:58:37.585Z,36.30
2023-12-21T10:01:05.189Z,36.30
2023-12-21T10:03:34.185Z,36.20
2023-12-21T10:06:04.761Z,36.30
2023-12-21T10:08:34.817Z,36.30
2023-12-21T10:11:07.884Z,36.40
2023-12-21T10:13:38.894Z,36.40
2023-12-21T10:16:07.131Z,36.40
2023-12-21T10:18:36.193Z,36.50
2023-12-21T10:21:03.939Z,36.50
2023-12-21T10:23:31.843Z,36.60
2023-12-21T10:25:59.898Z,36.60
2023-12-21T10:28:27.144Z,36.60
2023-12-21T10:30:56.602Z,36.50
2023-12-21T10:33:26.562Z,36.50
2023-12-21T10:35:53.976Z,36.50
2023-12-21T10:38:23.999Z,36.50
2023-12-21T10:40:51.590Z,36.50
2023-12-21T10:43:20.074Z,36.50
2023-12-21T10:45:51.544Z,36.50
2023-12-21T10:48:26.066Z,36.50
2023-12-21T10:50:55.051Z,36.50
2023-12-21T10:53:26.771Z,36.40
2023-12-21T10:55:58.393Z,36.50
2023-12-21T10:58:28.187Z,36.40
2023-12-21T11:01:03.846Z,36.40
2023-12-21T11:03:35.989Z,36.40
2023-12-21T11:06:05.593Z,36.50
2023-12-21T11:08:34.520Z,37.10
2023-12-21T11:11:02.077Z,36.50
2023-12-21T11:13:29.202Z,36.40
2023-12-21T11:15:58.253Z,36.40
2023-12-21T11:18:26.975Z,36.50
2023-12-21T11:21:00.924Z,36.40
2023-12-21T11:23:28.914Z,36.40
2023-12-21T11:26:00.457Z,36.40
2023-12-21T11:28:30.276Z,36.40
2023-12-21T11:30:58.043Z,36.40
2023-12-21T11:33:32.686Z,36.30
2023-12-21T11:36:00.550Z,36.40
2023-12-21T11:38:52.874Z,36.30
2023-12-21T11:41:25.885Z,36.30
2023-12-21T11:44:13.899Z,36.40
2023-12-21T11:46:43.053Z,36.30
2023-12-21T11:49:25.906Z,36.30
2023-12-21T11:51:54.581Z,36.30
2023-12-21T11:54:26.567Z,36.30
2023-12-21T11:56:56.518Z,36.30
2023-12-21T11:59:28.726Z,36.30
2023-12-21T12:01:56.161Z,36.40
2023-12-21T12:04:23.594Z,36.30
2023-12-21T12:06:53.237Z,36.30
2023-12-21T12:09:23.972Z,36.30
2023-12-21T12:11:52.687Z,36.30
2023-12-21T12:14:20.575Z,36.30
2023-12-21T12:16:48.157Z,36.40
2023-12-21T12:19:16.047Z,36.40
2023-12-21T12:21:43.654Z,36.30
2023-12-21T12:24:16.087Z,36.40
2023-12-21T12:26:43.847Z,36.30
2023-12-21T12:29:18.593Z,36.30
2023-12-21T12:31:48.870Z,36.30
2023-12-21T12:34:18.377Z,36.30
2023-12-21T12:36:46.205Z,36.20
2023-12-21T12:39:13.760Z,36.20
2023-12-21T12:41:41.045Z,36.10
2023-12-21T12:44:10.378Z,36.20
2023-12-21T12:46:37.978Z,36.10
2023-12-21T12:49:05.461Z,36.10
2023-12-21T12:51:33.346Z,36.10
2023-12-21T12:54:01.753Z,36.20
2023-12-21T12:56:28.992Z,36.20
2023-12-21T12:58:59.647Z,36.20
2023-12-21T13:01:29.241Z,36.20
2023-12-21T13:04:00.718Z,36.20
2023-12-21T13:06:30.231Z,36.20
2023-12-21T13:08:58.234Z,36.30
2023-12-21T13:11:25.893Z,36.30
2023-12-21T13:13:53.684Z,36.30
2023-12-21T13:16:21.249Z,36.40
2023-12-21T13:18:49.201Z,36.50
2023-12-21T13:21:17.294Z,36.50
2023-12-21T13:23:44.781Z,36.60
2023-12-21T13:26:14.246Z,36.70
2023-12-21T13:28:45.863Z,36.80
2023-12-21T13:31:15.764Z,36.90
2023-12-21T13:33:44.058Z,36.80
2023-12-21T13:36:11.696Z,36.90
2023-12-21T13:38:42.007Z,36.90
2023-12-21T13:41:10.703Z,36.80
2023-12-21T13:43:40.708Z,36.80
2023-12-21T13:46:14.410Z,36.80
2023-12-21T13:48:41.705Z,36.90
2023-12-21T13:51:09.146Z,36.60
2023-12-21T13:53:37.169Z,36.20
2023-12-21T13:56:05.211Z,36.10
2023-12-21T13:58:32.845Z,36.00
2023-12-21T14:01:03.400Z,36.00
2023-12-21T14:03:31.442Z,36.10
2023-12-21T14:05:59.350Z,36.00
2023-12-21T14:08:26.595Z,36.10
2023-12-21T14:10:53.993Z,36.10
2023-12-21T14:13:21.465Z,36.10
2023-12-21T14:15:48.701Z,36.20
2023-12-21T14:18:18.812Z,36.20
2023-12-21T14:20:49.361Z,36.20
2023-12-21T14:23:20.679Z,36.20
2023-12-21T14:25:52.261Z,36.30
2023-12-21T14:28:20.194Z,36.30
2023-12-21T14:30:51.764Z,36.30
2023-12-21T14:33:19.639Z,36.50
2023-12-21T14:35:49.579Z,36.30
2023-12-21T14:38:17.406Z,36.30
2023-12-21T14:40:46.678Z,36.30
2023-12-21T14:43:14.791Z,36.30
2023-12-21T14:45:42.112Z,36.30
2023-12-21T14:48:09.736Z,36.30
2023-12-21T14:50:40.070Z,36.30
2023-12-21T14:53:07.673Z,36.60
2023-12-21T14:55:35.725Z,36.30
2023-12-21T14:58:03.399Z,36.20
2023-12-21T15:00:33.436Z,36.20
2023-12-21T15:03:02.683Z,36.20
2023-12-21T15:05:30.192Z,36.10
2023-12-21T15:07:57.868Z,36.10
2023-12-21T15:10:27.753Z,36.10
2023-12-21T15:12:58.199Z,36.10
2023-12-21T15:15:25.818Z,36.10
2023-12-21T15:17:53.793Z,36.10
2023-12-21T15:20:21.479Z,36.10
2023-12-21T15:22:49.077Z,36.10
2023-12-21T15:25:16.811Z,36.10
2023-12-21T15:27:44.782Z,36.10
2023-12-21T15:30:12.930Z,36.10
2023-12-21T15:32:43.804Z,36.00
2023-12-21T15:35:12.794Z,36.00
2023-12-21T15:37:40.060Z,36.00
2023-12-21T15:40:07.988Z,36.00
2023-12-21T15:42:35.414Z,36.00
2023-12-21T15:45:02.871Z,36.00
2023-12-21T15:47:30.967Z,36.10
2023-12-21T15:49:58.483Z,36.10
2023-12-21T15:52:25.939Z,36.00
2023-12-21T15:54:53.405Z,36.00
2023-12-21T15:57:20.799Z,36.10
2023-12-21T15:59:48.304Z,36.00
2023-12-21T16:02:16.496Z,36.00
2023-12-21T16:04:43.891Z,36.00
2023-12-21T16:07:12.739Z,36.00
2023-12-21T16:09:40.295Z,36.00
2023-12-21T16:12:08.172Z,35.90
2023-12-21T16:14:36.014Z,36.00
2023-12-21T16:17:07.030Z,36.00
2023-12-21T16:19:35.647Z,36.00
2023-12-21T16:22:04.940Z,36.00
2023-12-21T16:24:33.756Z,36.10
2023-12-21T16:27:01.264Z,36.10
2023-12-21T16:29:29.263Z,36.10
2023-12-21T16:31:57.211Z,36.10
2023-12-21T16:34:25.068Z,36.10
2023-12-21T16:36:53.389Z,36.10
2023-12-21T16:39:21.171Z,36.10
2023-12-21T16:41:49.085Z,36.10
2023-12-21T16:44:16.678Z,36.20
2023-12-21T16:46:45.386Z,36.20
2023-12-21T16:49:13.595Z,36.10
2023-12-21T16:51:40.751Z,36.10
2023-12-21T16:54:08.960Z,36.10
2023-12-21T16:56:38.056Z,36.20
2023-12-21T16:59:09.203Z,36.20
2023-12-21T17:01:37.350Z,36.10
2023-12-21T17:04:05.532Z,36.20
2023-12-21T17:06:33.615Z,36.20
2023-12-21T17:09:01.480Z,36.20
2023-12-21T17:11:29.066Z,36.20
2023-12-21T17:13:58.544Z,36.20
2023-12-21T17:16:25.848Z,36.20
2023-12-21T17:18:54.965Z,36.20
2023-12-21T17:21:23.266Z,36.10
2023-12-21T17:23:50.626Z,36.10
2023-12-21T17:26:18.778Z,36.10
2023-12-21T17:28:46.425Z,35.90
2023-12-21T17:31:14.063Z,35.70
2023-12-21T17:33:41.554Z,35.60
2023-12-21T17:36:09.364Z,35.60
2023-12-21T17:38:37.143Z,35.50
2023-12-21T17:41:05.449Z,35.40
2023-12-21T17:43:33.128Z,35.50
2023-12-21T17:46:02.510Z,35.50
2023-12-21T17:48:30.128Z,35.50
2023-12-21T17:50:57.810Z,35.50
2023-12-21T17:53:25.665Z,35.40
2023-12-21T17:55:53.351Z,35.20
2023-12-21T17:58:22.058Z,35.10
2023-12-21T18:00:49.578Z,35.20
2023-12-21T18:03:17.043Z,35.30
2023-12-21T18:05:45.785Z,35.40
2023-12-21T18:08:14.919Z,35.50
2023-12-21T18:10:42.437Z,35.70
2023-12-21T18:13:09.921Z,35.80
2023-12-21T18:15:38.593Z,35.90
2023-12-21T18:18:06.096Z,36.00
2023-12-21T18:20:33.743Z,36.10
2023-12-21T18:23:01.798Z,36.10
2023-12-21T18:25:29.601Z,36.10
2023-12-21T18:27:57.811Z,36.10
2023-12-21T18:30:25.349Z,36.10
2023-12-21T18:32:53.246Z,36.00
2023-12-21T18:35:21.354Z,36.00
2023-12-21T18:37:49.206Z,36.00
2023-12-21T18:40:17.331Z,36.10
2023-12-21T18:42:45.827Z,36.10
2023-12-21T18:45:13.319Z,36.10
2023-12-21T18:47:40.807Z,36.10
2023-12-21T18:50:09.767Z,36.10
2023-12-21T18:52:37.617Z,36.10
2023-12-21T18:55:05.529Z,36.20
2023-12-21T18:57:33.675Z,36.20
2023-12-21T19:00:02.649Z,36.20
2023-12-21T19:02:30.378Z,36.20
2023-12-21T19:04:58.402Z,36.20
2023-12-21T19:07:29.838Z,36.20
2023-12-21T19:09:57.465Z,36.30
2023-12-21T19:12:24.929Z,36.30
2023-12-21T19:14:52.560Z,36.30
2023-12-21T19:17:20.770Z,36.30
2023-12-21T19:19:48.661Z,36.90
2023-12-21T19:22:16.725Z,36.30
2023-12-21T19:24:44.569Z,36.30
2023-12-21T19:27:13.414Z,36.30
2023-12-21T19:29:41.171Z,36.30
2023-12-21T19:32:10.186Z,36.40
2023-12-21T19:34:40.151Z,36.40
2023-12-21T19:37:11.577Z,36.40
2023-12-21T19:39:39.515Z,36.40
2023-12-21T19:42:07.974Z,36.40
2023-12-21T19:44:39.144Z,36.40
2023-12-21T19:47:08.623Z,37.10
2023-12-21T19:49:38.219Z,36.50
2023-12-21T19:52:06.822Z,36.60
2023-12-21T19:54:34.769Z,36.50
2023-12-21T19:57:03.958Z,36.50
2023-12-21T19:59:31.552Z,36.60
2023-12-21T20:01:59.536Z,36.60
2023-12-21T20:04:28.029Z,36.60
2023-12-21T20:06:56.348Z,36.60
2023-12-21T20:09:24.012Z,36.70
2023-12-21T20:11:51.658Z,36.60
2023-12-21T20:14:20.789Z,36.70
2023-12-21T20:16:48.753Z,36.70
2023-12-21T20:19:17.686Z,36.70
2023-12-21T20:21:47.224Z,36.70
2023-12-21T20:24:20.245Z,36.80
2023-12-21T20:26:47.941Z,36.90
2023-12-21T20:29:16.829Z,36.80
2023-12-21T20:31:45.003Z,36.90
2023-12-21T20:34:13.900Z,36.80
2023-12-21T20:36:41.787Z,36.90
2023-12-21T20:39:09.706Z,36.90
2023-12-21T20:41:37.261Z,36.90
2023-12-21T20:44:05.577Z,37.00
2023-12-21T20:46:33.209Z,36.90
2023-12-21T20:49:01.136Z,36.90
2023-12-21T20:51:29.303Z,37.00
2023-12-21T20:53:59.536Z,37.00
2023-12-21T20:56:30.893Z,37.00
2023-12-21T20:58:58.426Z,37.00
2023-12-21T21:01:28.253Z,37.00
2023-12-21T21:03:56.471Z,37.00
2023-12-21T21:06:24.748Z,37.10
2023-12-21T21:08:52.427Z,37.10
2023-12-21T21:11:20.667Z,37.10
2023-12-21T21:13:51.350Z,37.10
2023-12-21T21:16:23.054Z,37.10
2023-12-21T21:18:50.953Z,37.20
2023-12-21T21:21:19.140Z,37.20
2023-12-21T21:23:46.802Z,37.20
2023-12-21T21:26:17.827Z,37.10
2023-12-21T21:28:45.731Z,37.10
2023-12-21T21:31:20.064Z,37.10
2023-12-21T21:33:49.267Z,37.30
2023-12-21T21:36:17.404Z,37.20
2023-12-21T21:38:45.327Z,37.20
2023-12-21T21:41:20.682Z,37.10
2023-12-21T21:43:49.758Z,37.30
2023-12-21T21:46:18.662Z,37.20
2023-12-21T21:48:46.729Z,37.30
2023-12-21T21:51:17.406Z,37.20
2023-12-21T21:53:46.333Z,37.30
2023-12-21T21:56:15.159Z,37.30
2023-12-21T21:58:42.547Z,37.30
2023-12-21T22:01:10.627Z,37.30
2023-12-21T22:03:38.542Z,37.20
2023-12-21T22:06:06.447Z,37.10
2023-12-21T22:08:34.302Z,37.30
2023-12-21T22:11:02.902Z,37.30
2023-12-21T22:13:31.595Z,37.30
2023-12-21T22:16:02.231Z,37.40
2023-12-21T22:18:30.045Z,37.50
2023-12-21T22:20:57.818Z,37.40
2023-12-21T22:23:27.542Z,37.50
2023-12-21T22:25:55.254Z,37.50
2023-12-21T22:28:24.613Z,37.40
2023-12-21T22:30:52.328Z,37.40
2023-12-21T22:33:20.238Z,37.50
2023-12-21T22:35:48.266Z,37.50
2023-12-21T22:38:16.266Z,37.50
2023-12-21T22:40:44.044Z,37.50
2023-12-21T22:43:13.245Z,37.50
2023-12-21T22:45:42.637Z,37.50
2023-12-21T22:48:12.669Z,37.50
2023-12-21T22:50:40.269Z,37.60
2023-12-21T22:53:07.863Z,37.50
2023-12-21T22:55:35.611Z,37.50
2023-12-21T22:58:02.975Z,37.50
2023-12-21T23:00:30.851Z,37.60
2023-12-21T23:02:59.486Z,37.70
2023-12-21T23:05:27.180Z,37.60
2023-12-21T23:07:54.964Z,37.60
2023-12-21T23:10:23.320Z,37.60
2023-12-21T23:12:51.115Z,37.60
2023-12-21T23:15:18.749Z,37.70
2023-12-21T23:17:46.593Z,37.60
2023-12-21T23:20:14.671Z,37.70
2023-12-21T23:22:42.296Z,37.50
2023-12-21T23:25:09.771Z,37.60
2023-12-21T23:27:37.027Z,37.60
2023-12-21T23:30:04.736Z,38.20
2023-12-21T23:32:31.996Z,37.60
2023-12-21T23:35:12.661Z,37.70
2023-12-21T23:37:48.626Z,37.70
2023-12-21T23:40:16.592Z,38.00
2023-12-21T23:42:44.132Z,37.70
2023-12-21T23:45:11.512Z,37.60
2023-12-21T23:47:39.194Z,37.60
2023-12-21T23:50:07.546Z,37.70
2023-12-21T23:52:35.018Z,37.80
2023-12-21T23:55:02.747Z,37.80
2023-12-21T23:57:30.004Z,37.80
2023-12-21T23:59:57.550Z,37.80
